Monday, September 22, 2014
06:19 UTC
  |  Log In   |  Register Free
Airport Search:

Newnan Coweta County Airport
(KCCO)

Newnan Coweta County Airport Diagram
No Airport Diagram Available

FAA data valid effective September 18, 2014 - November 13, 2014 (unless otherwise noted).

 
 
 
 
 
 
 
 
 
 
 
 
 
 

Current Aviation Weather for Newnan Coweta County Airport (KCCO)

The most recent METAR observation for KCCO was updated at: 0608
METAR Summary (Translated METAR)
KCCO
220555Z AUTO 00000KT 10SM SCT090 22/20 A2998 RMK AO2 T02160195 10258 20212 403070157
KFFC
220553Z AUTO 00000KT 10SM CLR 22/18 A2998 RMK AO2 SLP145 T02170178 10233 20200 58006
(10.3 nm NE from KCCO)
KLGC
220555Z AUTO 00000KT 10SM CLR 21/20 A2999 RMK AO2 T02050198 10262 20200 403190159
(23.7 nm SW from KCCO)
TAF
No TAF information found within 50 nm of KCCO
  Airport Weather Conditions for KCCO

 Current Weather at CCO
70° F
Fair
North winds at 0.0 mph
CCO NOAA Radar

Pressure: 30.00 in
Humidity: 90%
Wind: Calm
Dew Point: 67.3°F
Visibility: 10.00 mi


Airport Weather Forecast for KCCO

Translated METAR and TAF for KCCO
Translated METAR for KCCO (0614 UTC 22 September 2014)
found at http://aviationweather.gov/adds/metars/
 
METAR text: KCCO 220555Z AUTO 00000KT 10SM SCT090 22/20 A2998 RMK AO2 T02160195 10258 20212 403070157
Conditions at: KCCO (NEWNAN , GA, US) observed 0555 UTC 22 September 2014
Temperature: 21.6°C (71°F)
Dewpoint: 19.5°C (67°F) [RH = 88%]
Pressure (altimeter): 29.98 inches Hg (1015.3 mb)
Winds: calm
Visibility: 10 or more miles (16+ km)
Ceiling: at least 12,000 feet AGL
Clouds: scattered clouds at 9000 feet AGL
Weather: automated observation with no human augmentation;
there may or may not be significant weather present at this time
Translated TAF for KCCO

There is no translated TAF available for this airport

Find All Airport Services Find A Hotel Find A Rental Car Find A Golf Course Find A Restaurant $100 Hamburger



FBO's on the Field
FBO Company Facility Photos Services Transportation Aviation Fuel Prices: Prices include tax
Catering Weather Repair Courtesy Rental Type 100LL JetA JetA+ MOGAS 8087
 
CCO Airport Services

This FBO has not yet been rated
FS:Shell
Last Updated: Sep-02
Login to update fuel prices
SS:
Contact CCO Airport ServicesMore FBO Information
 
Add another FBO Facility Photos Catering Weather Repair Courtesy Rental Type 100LL JetA JetA+ MOGAS 8087
Services Transportation Aviation Fuel Prices: Prices include tax


model-print
model-print
model-print
model-print